Time;durP1;ratioP1;P1;durP2;ratioP2;P2;SDS_P1;SDS_P2;PMS_P1;PMS_P2;Temp;Humidity;BMP_temperature;BMP_pressure;BME280_temperature;BME280_humidity;BME280_pressure;Samples;Min_cycle;Max_cycle;Signal;HPM_P1;HPM_P2
2023/09/17 00:00:52;;;;;;;18.00;5.82;;;;;;;;;;4880871;29;20414;-87
2023/09/17 00:03:23;;;;;;;;;;;;;;;;;;4871860;29;20083;-87
2023/09/17 00:05:53;;;;;;;17.17;5.82;;;;;;;;;;4888564;29;19930;-88
2023/09/17 00:08:25;;;;;;;18.20;7.10;;;;;;;;;;4900497;29;20052;-87
2023/09/17 00:10:59;;;;;;;14.95;6.45;;;;;;;;;;4901852;29;20383;-89
2023/09/17 00:13:30;;;;;;;22.90;7.03;;;;;;;;;;4899994;29;20521;-86
2023/09/17 00:16:02;;;;;;;17.92;6.57;;;;;;;;;;4917938;29;20390;-87
2023/09/17 00:18:33;;;;;;;14.55;6.88;;;;;;;;;;4885196;29;20056;-86
2023/09/17 00:21:08;;;;;;;13.45;6.18;;;;;;;;;;4903990;29;20059;-86
2023/09/17 00:23:43;;;;;;;18.27;6.10;;;;;;;;;;4900641;29;20048;-91
2023/09/17 00:26:14;;;;;;;16.90;7.05;;;;;;;;;;4885895;29;20056;-87
2023/09/17 00:28:49;;;;;;;17.60;6.95;;;;;;;;;;4886378;29;20052;-90
2023/09/17 00:31:27;;;;;;;18.58;7.65;;;;;;;;;;4899696;29;20056;-88
2023/09/17 00:34:00;;;;;;;17.27;7.13;;;;;;;;;;4900673;29;20376;-88
2023/09/17 00:36:32;;;;;;;18.08;7.63;;;;;;;;;;4900465;29;20048;-87
2023/09/17 00:39:04;;;;;;;17.38;7.35;;;;;;;;;;4901105;29;20061;-89
2023/09/17 00:41:38;;;;;;;21.42;7.07;;;;;;;;;;4887852;29;20052;-88
2023/09/17 00:44:09;;;;;;;17.75;7.10;;;;;;;;;;4904023;29;20482;-87
2023/09/17 00:46:42;;;;;;;19.60;6.53;;;;;;;;;;4898639;29;20044;-87
2023/09/17 00:49:14;;;;;;;19.95;6.70;;;;;;;;;;4899119;29;20069;-87
2023/09/17 00:51:47;;;;;;;19.10;7.20;;;;;;;;;;4872952;29;20063;-87
2023/09/17 00:54:19;;;;;;;19.17;7.22;;;;;;;;;;4898851;29;20507;-87
2023/09/17 00:56:51;;;;;;;14.75;6.80;;;;;;;;;;4915031;29;20059;-85
2023/09/17 00:59:23;;;;;;;15.77;7.28;;;;;;;;;;4915827;29;20513;-86
2023/09/17 01:01:57;;;;;;;18.80;6.78;;;;;;;;;;4899179;29;20052;-86
2023/09/17 01:04:29;;;;;;;19.20;6.72;;;;;;;;;;4898783;29;20052;-87
2023/09/17 01:07:01;;;;;;;19.98;7.53;;;;;;;;;;4884223;29;20056;-87
2023/09/17 01:09:34;;;;;;;14.35;6.28;;;;;;;;;;4898628;29;20138;-86
2023/09/17 01:12:08;;;;;;;17.75;6.57;;;;;;;;;;4899079;29;20056;-86
2023/09/17 01:14:39;;;;;;;16.02;6.68;;;;;;;;;;4899100;29;20052;-86
2023/09/17 01:17:12;;;;;;;14.93;6.75;;;;;;;;;;4913876;29;20056;-88
2023/09/17 01:19:44;;;;;;;16.55;6.07;;;;;;;;;;4898514;29;20059;-86
2023/09/17 01:22:44;;;;;;;21.33;6.65;;;;;;;;;;4898505;29;20053;-87
2023/09/17 01:25:35;;;;;;;15.98;5.88;;;;;;;;;;4890818;29;20052;-85
2023/09/17 01:28:14;;;;;;;13.55;5.57;;;;;;;;;;4898772;29;20052;-84
2023/09/17 01:30:46;;;;;;;16.73;6.00;;;;;;;;;;4900243;29;20056;-84
2023/09/17 01:33:21;;;;;;;14.38;6.25;;;;;;;;;;4900568;29;20056;-86
2023/09/17 01:36:03;;;;;;;16.45;5.93;;;;;;;;;;4899365;29;20060;-86
2023/09/17 01:38:48;;;;;;;18.55;6.18;;;;;;;;;;4917170;29;20052;-85
2023/09/17 01:41:20;;;;;;;16.35;6.38;;;;;;;;;;4915077;29;20048;-86
2023/09/17 01:43:56;;;;;;;15.57;6.25;;;;;;;;;;4917469;29;20059;-85
2023/09/17 01:46:26;;;;;;;;;;;;;;;;;;4899916;29;20052;-87
2023/09/17 01:49:02;;;;;;;16.42;5.78;;;;;;;;;;4900051;29;19923;-86
2023/09/17 01:51:33;;;;;;;14.40;6.13;;;;;;;;;;4900145;29;20068;-86
2023/09/17 01:54:07;;;;;;;12.25;5.30;;;;;;;;;;4899619;29;20430;-87
2023/09/17 01:56:39;;;;;;;18.70;5.18;;;;;;;;;;4900575;29;20060;-87
2023/09/17 01:59:10;;;;;;;21.98;6.00;;;;;;;;;;4901289;29;20063;-86
2023/09/17 02:01:44;;;;;;;16.17;5.40;;;;;;;;;;4903301;29;20056;-85
2023/09/17 02:04:21;;;;;;;17.25;6.03;;;;;;;;;;4903352;29;20048;-88
2023/09/17 02:06:54;;;;;;;13.63;5.70;;;;;;;;;;4889182;29;20415;-86
2023/09/17 02:09:29;;;;;;;14.43;5.53;;;;;;;;;;4904067;29;20427;-87
2023/09/17 02:12:02;;;;;;;12.40;5.40;;;;;;;;;;4903206;29;20048;-86
2023/09/17 02:14:34;;;;;;;15.20;5.13;;;;;;;;;;4902613;29;20052;-85
2023/09/17 02:17:08;;;;;;;11.88;5.40;;;;;;;;;;4920902;29;20055;-85
2023/09/17 02:19:43;;;;;;;14.73;5.75;;;;;;;;;;4887486;29;20063;-87
2023/09/17 02:22:14;;;;;;;;;;;;;;;;;;4901663;29;20048;-87
2023/09/17 02:24:48;;;;;;;10.35;4.63;;;;;;;;;;4895225;29;19923;-84
2023/09/17 02:27:18;;;;;;;17.65;4.68;;;;;;;;;;4883248;29;20041;-85
2023/09/17 02:29:52;;;;;;;16.60;5.22;;;;;;;;;;4913750;29;20067;-85
2023/09/17 02:32:24;;;;;;;11.10;5.68;;;;;;;;;;4882764;29;20060;-86
2023/09/17 02:34:56;;;;;;;11.07;4.75;;;;;;;;;;4913702;29;20104;-85
2023/09/17 02:37:29;;;;;;;10.00;4.70;;;;;;;;;;4899427;29;20067;-84
2023/09/17 02:40:08;;;;;;;20.27;6.30;;;;;;;;;;4898337;29;20365;-85
2023/09/17 02:42:44;;;;;;;14.60;5.30;;;;;;;;;;4913030;29;20055;-86
2023/09/17 02:45:18;;;;;;;14.70;5.15;;;;;;;;;;4899331;29;20048;-85
2023/09/17 02:47:51;;;;;;;16.55;5.30;;;;;;;;;;4899949;29;20052;-85
2023/09/17 02:50:21;;;;;;;14.77;5.07;;;;;;;;;;4898805;29;20048;-85
2023/09/17 02:52:54;;;;;;;12.00;5.25;;;;;;;;;;4898316;29;20395;-84
2023/09/17 02:55:25;;;;;;;;;;;;;;;;;;4912261;29;20055;-85
2023/09/17 02:57:55;;;;;;;19.88;5.85;;;;;;;;;;4901524;29;20301;-85
2023/09/17 03:00:27;;;;;;;16.33;5.47;;;;;;;;;;4901844;29;20062;-85
2023/09/17 03:03:01;;;;;;;17.50;5.60;;;;;;;;;;4907663;29;20060;-83
2023/09/17 03:05:34;;;;;;;14.00;5.90;;;;;;;;;;4894362;29;20067;-84
2023/09/17 03:08:09;;;;;;;16.35;5.85;;;;;;;;;;4910513;29;20048;-84
2023/09/17 03:11:00;;;;;;;17.05;6.10;;;;;;;;;;4930138;29;20052;-84
2023/09/17 03:13:31;;;;;;;14.77;5.30;;;;;;;;;;4909931;29;20052;-85
2023/09/17 03:16:03;;;;;;;19.20;6.38;;;;;;;;;;4907026;29;20084;-85
2023/09/17 03:18:36;;;;;;;15.65;5.47;;;;;;;;;;4912029;29;20071;-84
2023/09/17 03:21:07;;;;;;;16.02;5.68;;;;;;;;;;4907270;29;20056;-85
2023/09/17 03:23:39;;;;;;;16.73;5.55;;;;;;;;;;4903832;29;20056;-84
2023/09/17 03:26:13;;;;;;;13.55;5.45;;;;;;;;;;4901715;29;20488;-84
2023/09/17 03:28:44;;;;;;;14.73;5.50;;;;;;;;;;4900803;29;20051;-84
2023/09/17 03:31:15;;;;;;;12.88;5.60;;;;;;;;;;4901494;29;20055;-86
2023/09/17 03:33:49;;;;;;;17.05;6.38;;;;;;;;;;4887097;29;20051;-84
2023/09/17 03:36:21;;;;;;;15.55;5.25;;;;;;;;;;4900427;29;20056;-84
2023/09/17 03:38:51;;;;;;;14.55;5.30;;;;;;;;;;4900396;29;20059;-84
2023/09/17 03:41:26;;;;;;;11.95;5.50;;;;;;;;;;4900441;29;20056;-85
2023/09/17 03:43:57;;;;;;;16.33;6.15;;;;;;;;;;4901090;29;20131;-85
2023/09/17 03:46:32;;;;;;;17.85;6.20;;;;;;;;;;4885368;29;20060;-86
2023/09/17 03:49:05;;;;;;;19.33;5.93;;;;;;;;;;4900631;29;20056;-84
2023/09/17 03:51:36;;;;;;;17.92;5.72;;;;;;;;;;4885268;29;20052;-86
2023/09/17 03:54:09;;;;;;;16.75;6.28;;;;;;;;;;4885510;29;20055;-84
2023/09/17 03:56:40;;;;;;;12.88;5.53;;;;;;;;;;4917694;29;20052;-84
2023/09/17 03:59:11;;;;;;;;;;;;;;;;;;4900627;29;20059;-85
2023/09/17 04:01:43;;;;;;;18.88;5.57;;;;;;;;;;4900096;29;19923;-84
2023/09/17 04:04:14;;;;;;;12.45;5.10;;;;;;;;;;4901420;29;20047;-86
2023/09/17 04:06:45;;;;;;;12.68;5.13;;;;;;;;;;4900007;29;20058;-83
2023/09/17 04:09:16;;;;;;;17.85;5.63;;;;;;;;;;4916722;29;20048;-86
2023/09/17 04:11:47;;;;;;;15.82;5.38;;;;;;;;;;4900435;29;20048;-85
2023/09/17 04:14:18;;;;;;;15.70;5.70;;;;;;;;;;4899802;29;20044;-84
2023/09/17 04:16:50;;;;;;;17.50;5.45;;;;;;;;;;4917401;29;20052;-85
2023/09/17 04:19:21;;;;;;;;;;;;;;;;;;4901421;29;20040;-87
2023/09/17 04:21:51;;;;;;;13.40;5.40;;;;;;;;;;4899634;29;19923;-84
2023/09/17 04:24:25;;;;;;;13.23;4.90;;;;;;;;;;4899708;29;20079;-84
2023/09/17 04:26:56;;;;;;;10.50;4.63;;;;;;;;;;4899530;29;20048;-86
2023/09/17 04:29:29;;;;;;;16.20;5.65;;;;;;;;;;4899412;29;20062;-85
2023/09/17 04:32:01;;;;;;;17.05;5.35;;;;;;;;;;4915482;29;20067;-84
2023/09/17 04:34:34;;;;;;;13.60;4.97;;;;;;;;;;4899684;29;20056;-84
2023/09/17 04:37:07;;;;;;;15.88;5.40;;;;;;;;;;4884931;29;20063;-86
2023/09/17 04:39:38;;;;;;;13.82;5.10;;;;;;;;;;4899461;29;20052;-83
2023/09/17 04:42:25;;;;;;;13.50;5.43;;;;;;;;;;4899462;29;20048;-83
2023/09/17 04:44:55;;;;;;;15.35;5.80;;;;;;;;;;4899600;29;20419;-83
2023/09/17 04:47:28;;;;;;;17.25;5.45;;;;;;;;;;4885186;29;20055;-85
2023/09/17 04:50:01;;;;;;;10.15;5.18;;;;;;;;;;4899345;29;20056;-85
2023/09/17 04:52:34;;;;;;;17.15;5.80;;;;;;;;;;4899049;29;20068;-85
2023/09/17 04:55:06;;;;;;;13.07;5.43;;;;;;;;;;4898903;29;20056;-83
2023/09/17 04:57:36;;;;;;;12.63;5.30;;;;;;;;;;4900034;29;20067;-84
2023/09/17 05:00:11;;;;;;;14.77;4.93;;;;;;;;;;4899970;29;20052;-84
2023/09/17 05:02:43;;;;;;;14.57;5.57;;;;;;;;;;4914982;29;20487;-84
2023/09/17 05:05:18;;;;;;;19.20;5.03;;;;;;;;;;4915086;29;20515;-88
2023/09/17 05:07:57;;;;;;;12.73;4.53;;;;;;;;;;4900080;29;20048;-85
2023/09/17 05:10:28;;;;;;;11.77;5.03;;;;;;;;;;4884452;29;20060;-85
2023/09/17 05:13:00;;;;;;;17.27;5.35;;;;;;;;;;4899268;29;20492;-85
2023/09/17 05:15:32;;;;;;;18.33;5.57;;;;;;;;;;4899048;29;20056;-85
2023/09/17 05:18:09;;;;;;;18.73;5.30;;;;;;;;;;4898944;29;20112;-85
2023/09/17 05:20:48;;;;;;;12.88;4.80;;;;;;;;;;4898596;29;20060;-86
2023/09/17 05:23:20;;;;;;;13.63;5.10;;;;;;;;;;4899292;29;20056;-85
2023/09/17 05:25:56;;;;;;;13.15;5.55;;;;;;;;;;4898921;29;20180;-84
2023/09/17 05:28:29;;;;;;;12.63;4.55;;;;;;;;;;4899003;29;20052;-86
2023/09/17 05:31:00;;;;;;;20.60;6.05;;;;;;;;;;4898925;29;20063;-84
2023/09/17 05:33:31;;;;;;;16.83;5.10;;;;;;;;;;4915449;29;20075;-86
2023/09/17 05:36:04;;;;;;;13.10;5.10;;;;;;;;;;4902923;29;20056;-83
2023/09/17 05:38:38;;;;;;;19.40;6.45;;;;;;;;;;4903159;29;20056;-83
2023/09/17 05:41:10;;;;;;;16.40;6.03;;;;;;;;;;4902529;29;20521;-84
2023/09/17 05:43:43;;;;;;;17.63;6.80;;;;;;;;;;4902834;29;20063;-85
2023/09/17 05:46:15;;;;;;;19.27;6.70;;;;;;;;;;4902675;29;20060;-85
2023/09/17 05:48:46;;;;;;;22.90;7.35;;;;;;;;;;4918587;29;20079;-87
2023/09/17 05:51:16;;;;;;;15.00;6.07;;;;;;;;;;4887120;29;20056;-85
2023/09/17 05:53:50;;;;;;;20.45;6.97;;;;;;;;;;4902575;29;20056;-84
2023/09/17 05:56:22;;;;;;;19.65;6.53;;;;;;;;;;4919828;29;20052;-83
2023/09/17 05:58:55;;;;;;;22.52;6.22;;;;;;;;;;4902657;29;20055;-83
2023/09/17 06:01:26;;;;;;;14.00;5.72;;;;;;;;;;4902157;29;20402;-83
2023/09/17 06:03:56;;;;;;;14.80;5.82;;;;;;;;;;4901671;29;20406;-83
2023/09/17 06:06:30;;;;;;;16.13;6.28;;;;;;;;;;4919781;29;20044;-83
2023/09/17 06:09:05;;;;;;;16.13;5.95;;;;;;;;;;4901976;29;20383;-83
2023/09/17 06:11:36;;;;;;;15.35;6.30;;;;;;;;;;4919714;29;20387;-83
2023/09/17 06:14:06;;;;;;;16.98;6.55;;;;;;;;;;4903130;29;20055;-83
2023/09/17 06:16:37;;;;;;;20.08;6.18;;;;;;;;;;4901773;29;20063;-83
2023/09/17 06:19:29;;;;;;;18.70;6.78;;;;;;;;;;4905382;29;20048;-85
2023/09/17 06:22:00;;;;;;;19.83;7.15;;;;;;;;;;4901852;29;20059;-83
2023/09/17 06:24:32;;;;;;;16.52;6.47;;;;;;;;;;4886668;29;20059;-83
2023/09/17 06:27:03;;;;;;;20.58;6.72;;;;;;;;;;4903098;29;20055;-83
2023/09/17 06:29:35;;;;;;;19.48;7.18;;;;;;;;;;4902049;29;20048;-83
2023/09/17 06:32:05;;;;;;;21.48;6.70;;;;;;;;;;4901601;29;20056;-83
2023/09/17 06:34:36;;;;;;;20.80;7.78;;;;;;;;;;4919481;29;20059;-83
2023/09/17 06:37:10;;;;;;;17.90;7.85;;;;;;;;;;4901026;29;20048;-83
2023/09/17 06:39:43;;;;;;;19.40;7.53;;;;;;;;;;4901668;29;20052;-83
2023/09/17 06:42:16;;;;;;;15.80;6.47;;;;;;;;;;4901326;29;20063;-84
2023/09/17 06:44:46;;;;;;;17.38;6.88;;;;;;;;;;4918683;29;20048;-82
2023/09/17 06:47:19;;;;;;;20.67;6.75;;;;;;;;;;4919164;29;20365;-82
2023/09/17 06:49:50;;;;;;;18.67;6.63;;;;;;;;;;4886344;29;20060;-83
2023/09/17 06:52:23;;;;;;;19.00;6.95;;;;;;;;;;4885584;29;20408;-83
2023/09/17 06:54:54;;;;;;;16.77;7.13;;;;;;;;;;4900024;29;20056;-82
2023/09/17 06:57:25;;;;;;;17.05;6.50;;;;;;;;;;4882983;29;20492;-83
2023/09/17 06:59:56;;;;;;;17.35;7.47;;;;;;;;;;4883797;29;20399;-82
2023/09/17 07:02:26;;;;;;;19.23;7.22;;;;;;;;;;4897705;29;20472;-82
2023/09/17 07:05:00;;;;;;;20.83;8.25;;;;;;;;;;4900220;29;20056;-82
2023/09/17 07:07:33;;;;;;;17.98;6.68;;;;;;;;;;4883506;29;20044;-83
2023/09/17 07:10:04;;;;;;;21.17;6.30;;;;;;;;;;4883680;29;20056;-82
2023/09/17 07:12:38;;;;;;;15.32;5.40;;;;;;;;;;4899442;29;20488;-84
2023/09/17 07:15:10;;;;;;;16.13;4.97;;;;;;;;;;4899484;29;20399;-82
2023/09/17 07:17:42;;;;;;;15.88;4.88;;;;;;;;;;4899622;29;20051;-84
2023/09/17 07:20:13;;;;;;;13.75;4.93;;;;;;;;;;4881827;29;20057;-85
2023/09/17 07:22:48;;;;;;;12.15;4.95;;;;;;;;;;4881559;29;20053;-81
2023/09/17 07:25:19;;;;;;;17.63;6.20;;;;;;;;;;4898311;29;20061;-84
2023/09/17 07:27:49;;;;;;;20.92;8.43;;;;;;;;;;4900051;29;20048;-83
2023/09/17 07:30:19;;;;;;;19.00;8.13;;;;;;;;;;4897901;29;20055;-82
2023/09/17 07:32:51;;;;;;;22.27;8.05;;;;;;;;;;4899113;29;20056;-81
2023/09/17 07:35:24;;;;;;;26.90;9.20;;;;;;;;;;4899041;29;20044;-84
2023/09/17 07:37:54;;;;;;;23.70;9.35;;;;;;;;;;4899437;29;20487;-82
2023/09/17 07:40:25;;;;;;;24.00;8.77;;;;;;;;;;4882630;29;20041;-82
2023/09/17 07:42:55;;;;;;;23.80;9.27;;;;;;;;;;4881840;29;20056;-83
2023/09/17 07:45:27;;;;;;;24.15;9.05;;;;;;;;;;4882954;29;20059;-82
2023/09/17 07:47:57;;;;;;;22.33;8.98;;;;;;;;;;4897840;29;20040;-82
2023/09/17 07:50:30;;;;;;;19.50;7.47;;;;;;;;;;4901082;29;20052;-82
2023/09/17 07:53:02;;;;;;;19.92;7.45;;;;;;;;;;4900168;29;20059;-82
2023/09/17 07:55:34;;;;;;;16.00;6.05;;;;;;;;;;4886793;29;20052;-82
2023/09/17 07:58:05;;;;;;;19.35;7.07;;;;;;;;;;4917127;29;20059;-82
2023/09/17 08:00:35;;;;;;;14.65;5.82;;;;;;;;;;4918082;29;20051;-83
2023/09/17 08:03:07;;;;;;;15.38;5.82;;;;;;;;;;4917998;29;20048;-82
2023/09/17 08:05:40;;;;;;;15.68;5.88;;;;;;;;;;4915376;29;20495;-82
2023/09/17 08:08:10;;;;;;;16.38;5.72;;;;;;;;;;4917409;29;20407;-82
2023/09/17 08:10:41;;;;;;;17.42;5.97;;;;;;;;;;4917794;29;20415;-82
2023/09/17 08:13:14;;;;;;;13.35;5.35;;;;;;;;;;4916880;29;20048;-83
2023/09/17 08:15:50;;;;;;;;;;;;;;;;;;4899751;29;20059;-85
2023/09/17 08:18:20;;;;;;;16.60;5.95;;;;;;;;;;4900778;29;19930;-83
2023/09/17 08:20:51;;;;;;;14.32;5.75;;;;;;;;;;4900948;29;20056;-83
2023/09/17 08:23:24;;;;;;;15.50;5.85;;;;;;;;;;4917509;29;20479;-82
2023/09/17 08:25:56;;;;;;;16.65;6.75;;;;;;;;;;4916831;29;20162;-83
2023/09/17 08:28:27;;;;;;;16.83;7.35;;;;;;;;;;4916827;29;20048;-82
2023/09/17 08:30:59;;;;;;;13.63;5.65;;;;;;;;;;4917469;29;20056;-82
2023/09/17 08:33:31;;;;;;;13.82;6.28;;;;;;;;;;4899446;29;20048;-82
2023/09/17 08:36:02;;;;;;;15.80;6.00;;;;;;;;;;4916733;29;20059;-82
2023/09/17 08:38:33;;;;;;;12.38;5.80;;;;;;;;;;4917785;29;20040;-82
2023/09/17 08:41:07;;;;;;;12.15;4.85;;;;;;;;;;4898802;29;20403;-81
2023/09/17 08:43:41;;;;;;;12.10;4.50;;;;;;;;;;4916841;29;20056;-81
2023/09/17 08:46:16;;;;;;;13.57;4.82;;;;;;;;;;4917077;29;20479;-81
2023/09/17 08:48:46;;;;;;;15.63;5.07;;;;;;;;;;4915928;29;20052;-82
2023/09/17 08:51:18;;;;;;;15.82;5.20;;;;;;;;;;4899087;29;20494;-82
2023/09/17 08:54:17;;;;;;;16.08;4.97;;;;;;;;;;4917062;29;20051;-82
2023/09/17 08:56:52;;;;;;;11.77;4.88;;;;;;;;;;4915486;29;20048;-82
2023/09/17 08:59:29;;;;;;;12.27;5.25;;;;;;;;;;4916757;29;20391;-82
2023/09/17 09:02:07;;;;;;;10.38;4.47;;;;;;;;;;4916814;29;20048;-85
2023/09/17 09:04:42;;;;;;;12.52;4.20;;;;;;;;;;4916894;29;20055;-82
2023/09/17 09:07:16;;;;;;;11.98;5.30;;;;;;;;;;4901084;29;20047;-83
2023/09/17 09:09:52;;;;;;;17.08;5.35;;;;;;;;;;4919163;29;20052;-82
2023/09/17 09:12:26;;;;;;;12.38;5.47;;;;;;;;;;4920536;29;20052;-82
2023/09/17 09:15:00;;;;;;;13.43;5.40;;;;;;;;;;4919504;29;20055;-83
2023/09/17 09:17:34;;;;;;;11.40;5.30;;;;;;;;;;4920453;29;20052;-81
2023/09/17 09:20:10;;;;;;;14.25;6.07;;;;;;;;;;4918653;29;20048;-82
2023/09/17 09:22:45;;;;;;;15.80;7.53;;;;;;;;;;4904773;29;20044;-82
2023/09/17 09:25:18;;;;;;;16.90;6.57;;;;;;;;;;4920319;29;20505;-82
2023/09/17 09:27:51;;;;;;;21.42;7.28;;;;;;;;;;4920137;29;20055;-81
2023/09/17 09:30:21;;;;;;;15.23;6.25;;;;;;;;;;4902346;29;20076;-81
2023/09/17 09:32:56;;;;;;;17.50;7.13;;;;;;;;;;4903403;29;20067;-82
2023/09/17 09:35:31;;;;;;;18.17;6.47;;;;;;;;;;4902555;29;20058;-81
2023/09/17 09:38:08;;;;;;;14.38;6.45;;;;;;;;;;4920000;29;20406;-81
2023/09/17 09:40:41;;;;;;;20.50;7.18;;;;;;;;;;4903732;29;20051;-82
2023/09/17 09:43:31;;;;;;;17.73;7.50;;;;;;;;;;4902430;29;20067;-81
2023/09/17 09:46:04;;;;;;;16.52;6.72;;;;;;;;;;4902495;29;20407;-82
2023/09/17 09:48:40;;;;;;;19.48;8.02;;;;;;;;;;4919693;29;20383;-82
2023/09/17 09:51:16;;;;;;;17.95;7.53;;;;;;;;;;4920056;29;20044;-82
2023/09/17 09:53:48;;;;;;;19.55;7.43;;;;;;;;;;4865458;29;20041;-82
2023/09/17 09:56:21;;;;;;;14.15;5.80;;;;;;;;;;4881190;29;20048;-81
2023/09/17 09:58:56;;;;;;;15.10;6.85;;;;;;;;;;4881080;29;20045;-82
2023/09/17 10:01:28;;;;;;;15.57;6.75;;;;;;;;;;4881232;29;20045;-81
2023/09/17 10:04:05;;;;;;;19.52;7.07;;;;;;;;;;4881156;29;20053;-82
2023/09/17 10:06:39;;;;;;;14.38;6.35;;;;;;;;;;4866605;29;20052;-81
2023/09/17 10:09:13;;;;;;;15.00;6.65;;;;;;;;;;4899295;29;20044;-80
2023/09/17 10:11:43;;;;;;;16.83;7.20;;;;;;;;;;4899934;29;20496;-82
2023/09/17 10:14:24;;;;;;;13.13;6.70;;;;;;;;;;4883398;29;20053;-81
2023/09/17 10:17:00;;;;;;;18.77;7.43;;;;;;;;;;4899623;29;20048;-82
2023/09/17 10:19:38;;;;;;;16.08;6.47;;;;;;;;;;4898824;29;20048;-82
2023/09/17 10:22:10;;;;;;;18.10;7.80;;;;;;;;;;4899259;29;20064;-81
2023/09/17 10:24:42;;;;;;;20.73;7.28;;;;;;;;;;4899553;29;20068;-82
2023/09/17 10:27:18;;;;;;;15.95;7.18;;;;;;;;;;4899666;29;20060;-81
2023/09/17 10:29:50;;;;;;;20.38;8.38;;;;;;;;;;4882456;29;20057;-81
2023/09/17 10:32:21;;;;;;;;;;;;;;;;;;4899571;29;20393;-82
2023/09/17 10:34:57;;;;;;;22.55;8.20;;;;;;;;;;4899572;29;19942;-81
2023/09/17 10:37:29;;;;;;;19.77;8.38;;;;;;;;;;4874850;29;20435;-80
2023/09/17 10:40:09;;;;;;;22.92;8.65;;;;;;;;;;4907645;29;20044;-81
2023/09/17 10:42:40;;;;;;;22.30;8.73;;;;;;;;;;4906952;29;20053;-80
2023/09/17 10:45:12;;;;;;;;;;;;;;;;;;4908182;29;20052;-82
2023/09/17 10:47:43;;;;;;;22.15;8.80;;;;;;;;;;4902834;29;20355;-82
2023/09/17 10:50:16;;;;;;;20.45;7.88;;;;;;;;;;4899209;29;20055;-82
2023/09/17 10:52:47;;;;;;;18.55;8.40;;;;;;;;;;4901619;29;20414;-85
2023/09/17 10:55:23;;;;;;;15.85;7.47;;;;;;;;;;4900633;29;20064;-83
2023/09/17 10:58:26;;;;;;;21.10;7.45;;;;;;;;;;4918504;29;20063;-83
2023/09/17 11:01:05;;;;;;;15.65;6.95;;;;;;;;;;4918082;29;20048;-83
2023/09/17 11:03:39;;;;;;;14.52;6.35;;;;;;;;;;4918006;29;20520;-83
2023/09/17 11:06:16;;;;;;;12.98;6.68;;;;;;;;;;4917515;29;20047;-84
2023/09/17 11:08:57;;;;;;;16.65;7.68;;;;;;;;;;4878952;29;20051;-86
2023/09/17 11:11:32;;;;;;;20.77;8.90;;;;;;;;;;4883135;29;20080;-83
2023/09/17 11:14:06;;;;;;;16.83;8.77;;;;;;;;;;4904034;29;20040;-85
2023/09/17 11:16:39;;;;;;;17.02;8.20;;;;;;;;;;4917683;29;20052;-81
2023/09/17 11:19:19;;;;;;;19.02;9.05;;;;;;;;;;4916314;29;20384;-84
2023/09/17 11:22:12;;;;;;;16.20;8.05;;;;;;;;;;4900970;29;20518;-82
2023/09/17 11:24:45;;;;;;;17.38;8.98;;;;;;;;;;4917467;29;20052;-82
2023/09/17 11:27:21;;;;;;;18.05;8.38;;;;;;;;;;4917381;29;20051;-84
2023/09/17 11:29:56;;;;;;;16.42;7.90;;;;;;;;;;4916199;29;20060;-82
2023/09/17 11:32:28;;;;;;;14.23;7.85;;;;;;;;;;4897811;29;20499;-84
2023/09/17 11:34:58;;;;;;;20.45;8.65;;;;;;;;;;4900337;29;20064;-84
2023/09/17 11:37:30;;;;;;;16.48;8.73;;;;;;;;;;4881658;29;20053;-83
2023/09/17 11:40:10;;;;;;;17.25;7.85;;;;;;;;;;4879843;29;20060;-87
2023/09/17 11:42:50;;;;;;;14.77;7.13;;;;;;;;;;4848614;29;20067;-86
2023/09/17 11:45:21;;;;;;;14.75;7.45;;;;;;;;;;4847585;29;20472;-87
2023/09/17 11:47:53;;;;;;;17.83;8.63;;;;;;;;;;4847743;29;20060;-91
2023/09/17 11:50:26;;;;;;;17.38;8.38;;;;;;;;;;4847305;29;20148;-88
2023/09/17 11:53:07;;;;;;;15.57;6.13;;;;;;;;;;4879532;29;20056;-87
2023/09/17 11:55:41;;;;;;;12.88;6.25;;;;;;;;;;4861953;29;20052;-92
2023/09/17 11:58:19;;;;;;;18.08;5.70;;;;;;;;;;4862882;29;20065;-85
2023/09/17 12:00:51;;;;;;;8.52;4.00;;;;;;;;;;4879405;29;20060;-89
2023/09/17 12:03:27;;;;;;;10.35;4.75;;;;;;;;;;4863904;29;20049;-86
2023/09/17 12:05:58;;;;;;;10.80;3.30;;;;;;;;;;4879168;29;20072;-88
2023/09/17 12:08:30;;;;;;;;;;;;;;;;;;4863653;29;20111;-88
2023/09/17 12:11:10;;;;;;;9.60;3.67;;;;;;;;;;4869619;29;19934;-89
2023/09/17 12:13:41;;;;;;;6.28;3.17;;;;;;;;;;4897995;29;20056;-88
2023/09/17 12:16:12;;;;;;;;;;;;;;;;;;4896127;29;20052;-90
2023/09/17 12:18:46;;;;;;;7.70;3.40;;;;;;;;;;4868360;29;19923;-89
2023/09/17 12:21:39;;;;;;;7.20;2.97;;;;;;;;;;4882152;29;20064;-91
2023/09/17 12:24:34;;;;;;;6.97;3.55;;;;;;;;;;4882794;29;20413;-90
2023/09/17 12:27:24;;;;;;;7.55;3.58;;;;;;;;;;4883916;29;20060;-90
2023/09/17 12:29:56;;;;;;;7.60;2.85;;;;;;;;;;4882981;29;20496;-91
2023/09/17 12:32:34;;;;;;;10.20;3.47;;;;;;;;;;4885793;29;20067;-92
2023/09/17 12:35:13;;;;;;;6.15;3.67;;;;;;;;;;4882351;29;20415;-92
2023/09/17 12:37:43;;;;;;;6.88;3.38;;;;;;;;;;4900727;29;20048;-89
2023/09/17 12:40:14;;;;;;;9.63;4.43;;;;;;;;;;4868638;29;20407;-90
2023/09/17 12:42:48;;;;;;;7.72;3.28;;;;;;;;;;4881674;29;20045;-90
2023/09/17 12:45:19;;;;;;;7.72;3.22;;;;;;;;;;4881333;29;20052;-90
2023/09/17 12:47:49;;;;;;;8.93;3.45;;;;;;;;;;4880921;29;20068;-88
2023/09/17 12:50:20;;;;;;;10.02;3.63;;;;;;;;;;4882396;29;20053;-89
2023/09/17 12:52:54;;;;;;;9.55;4.53;;;;;;;;;;4885476;29;20059;-89
2023/09/17 12:55:30;;;;;;;9.50;4.28;;;;;;;;;;4900076;29;20431;-90
2023/09/17 12:58:08;;;;;;;7.85;3.70;;;;;;;;;;4900649;29;20147;-91
2023/09/17 13:00:40;;;;;;;9.10;3.47;;;;;;;;;;4900421;29;20048;-90
2023/09/17 13:03:14;;;;;;;9.80;3.58;;;;;;;;;;4900017;29;20056;-90
2023/09/17 13:05:55;;;;;;;6.20;3.40;;;;;;;;;;4917762;29;20055;-92
2023/09/17 13:08:27;;;;;;;6.53;3.38;;;;;;;;;;4899895;29;20059;-90
2023/09/17 13:10:58;;;;;;;8.57;3.80;;;;;;;;;;4884686;29;20060;-90
2023/09/17 13:13:32;;;;;;;10.02;4.38;;;;;;;;;;4900029;29;20048;-91
2023/09/17 13:16:05;;;;;;;5.85;3.38;;;;;;;;;;4885982;29;20056;-91
2023/09/17 13:18:39;;;;;;;8.38;3.83;;;;;;;;;;4885085;29;20380;-89
2023/09/17 13:21:11;;;;;;;7.82;3.50;;;;;;;;;;4899689;29;20048;-91
2023/09/17 13:23:44;;;;;;;8.25;3.88;;;;;;;;;;4900810;29;20056;-90
2023/09/17 13:26:16;;;;;;;9.02;4.38;;;;;;;;;;4900610;29;20060;-90
2023/09/17 13:28:53;;;;;;;6.35;3.53;;;;;;;;;;4900016;29;20063;-92
2023/09/17 13:31:27;;;;;;;5.97;3.50;;;;;;;;;;4899462;29;20052;-91
2023/09/17 13:33:59;;;;;;;9.88;4.65;;;;;;;;;;4900476;29;20056;-92
2023/09/17 13:36:33;;;;;;;6.18;3.35;;;;;;;;;;4901619;29;20056;-89
2023/09/17 13:39:04;;;;;;;9.38;4.30;;;;;;;;;;4915641;29;20056;-90
2023/09/17 13:41:36;;;;;;;9.02;3.92;;;;;;;;;;4900587;29;20072;-89
2023/09/17 13:44:15;;;;;;;7.57;3.70;;;;;;;;;;4900431;29;20064;-89
2023/09/17 13:46:48;;;;;;;7.13;3.78;;;;;;;;;;4900223;29;20048;-90
2023/09/17 13:49:19;;;;;;;7.95;4.03;;;;;;;;;;4899632;29;20052;-88
2023/09/17 13:51:51;;;;;;;7.28;3.83;;;;;;;;;;4899205;29;20075;-91
2023/09/17 13:54:22;;;;;;;10.10;3.80;;;;;;;;;;4884843;29;20063;-91
2023/09/17 13:56:56;;;;;;;8.77;3.50;;;;;;;;;;4903279;29;20060;-91
2023/09/17 13:59:26;;;;;;;7.50;3.78;;;;;;;;;;4903362;29;20051;-92
2023/09/17 14:02:00;;;;;;;6.47;3.75;;;;;;;;;;4902774;29;20056;-91
2023/09/17 14:04:30;;;;;;;7.20;3.80;;;;;;;;;;4903720;29;20060;-89
2023/09/17 14:07:05;;;;;;;10.73;4.45;;;;;;;;;;4920374;29;20383;-90
2023/09/17 14:09:36;;;;;;;7.47;3.97;;;;;;;;;;4887373;29;20083;-92
2023/09/17 14:12:08;;;;;;;7.60;4.20;;;;;;;;;;4903375;29;20056;-94
2023/09/17 14:14:43;;;;;;;8.35;4.20;;;;;;;;;;4903562;29;20066;-86
2023/09/17 14:17:16;;;;;;;8.00;4.20;;;;;;;;;;4920354;29;20055;-92
2023/09/17 14:19:49;;;;;;;7.30;4.20;;;;;;;;;;4903714;29;20055;-87
2023/09/17 14:22:20;;;;;;;6.57;4.22;;;;;;;;;;4887812;29;20060;-91
2023/09/17 14:24:50;;;;;;;9.23;4.63;;;;;;;;;;4903033;29;20060;-84
2023/09/17 14:27:26;;;;;;;11.50;4.55;;;;;;;;;;4902927;29;20523;-89
2023/09/17 14:30:02;;;;;;;7.93;4.65;;;;;;;;;;4902567;29;20095;-91
2023/09/17 14:32:35;;;;;;;9.48;4.63;;;;;;;;;;4903929;29;20048;-89
2023/09/17 14:35:07;;;;;;;8.95;4.53;;;;;;;;;;4920178;29;20051;-88
2023/09/17 14:37:42;;;;;;;9.60;4.47;;;;;;;;;;4903438;29;20052;-90
2023/09/17 14:40:12;;;;;;;7.00;4.60;;;;;;;;;;4903708;29;20055;-90
2023/09/17 14:42:44;;;;;;;;;;;;;;;;;;4920803;29;20391;-90
2023/09/17 14:45:15;;;;;;;7.78;4.68;;;;;;;;;;4903320;29;19930;-91
2023/09/17 14:47:50;;;;;;;9.75;5.15;;;;;;;;;;4903812;29;20387;-88
2023/09/17 14:50:21;;;;;;;7.03;5.15;;;;;;;;;;4903381;29;20407;-90
2023/09/17 14:52:52;;;;;;;8.82;4.38;;;;;;;;;;4902713;29;20066;-91
2023/09/17 14:55:24;;;;;;;9.35;4.85;;;;;;;;;;4902369;29;20052;-90
2023/09/17 14:58:00;;;;;;;13.13;7.65;;;;;;;;;;4902464;29;20056;-91
2023/09/17 15:00:31;;;;;;;8.48;5.22;;;;;;;;;;4903728;29;20063;-92
2023/09/17 15:03:02;;;;;;;7.57;4.43;;;;;;;;;;4919603;29;20052;-85
2023/09/17 15:05:35;;;;;;;9.02;4.80;;;;;;;;;;4901647;29;20063;-89
2023/09/17 15:08:11;;;;;;;9.13;4.38;;;;;;;;;;4901323;29;20063;-90
2023/09/17 15:10:45;;;;;;;7.95;4.60;;;;;;;;;;4919503;29;20044;-88
2023/09/17 15:13:18;;;;;;;7.25;4.72;;;;;;;;;;4902344;29;20055;-89